createdAt,value
2023-05-09T00:00:26.398Z,13.46
2023-05-09T00:01:26.361Z,13.44
2023-05-09T00:02:26.483Z,13.44
2023-05-09T00:03:26.370Z,13.39
2023-05-09T00:04:26.369Z,13.39
2023-05-09T00:05:26.320Z,13.38
2023-05-09T00:06:26.364Z,13.37
2023-05-09T00:07:26.356Z,13.35
2023-05-09T00:08:26.302Z,13.33
2023-05-09T00:09:26.287Z,13.31
2023-05-09T00:10:26.279Z,13.33
2023-05-09T00:11:26.270Z,13.30
2023-05-09T00:12:26.294Z,13.27
2023-05-09T00:14:26.334Z,13.25
2023-05-09T00:15:26.219Z,13.20
2023-05-09T00:16:26.880Z,13.18
2023-05-09T00:17:26.248Z,13.15
2023-05-09T00:18:26.200Z,13.12
2023-05-09T00:19:26.229Z,13.09
2023-05-09T00:20:26.218Z,13.05
2023-05-09T00:21:26.177Z,13.01
2023-05-09T00:22:26.161Z,12.97
2023-05-09T00:23:26.153Z,12.95
2023-05-09T00:24:26.158Z,12.94
2023-05-09T00:25:26.126Z,12.93
2023-05-09T00:26:26.742Z,12.94
2023-05-09T00:27:26.099Z,12.94
2023-05-09T00:28:26.145Z,12.93
2023-05-09T00:29:26.078Z,12.91
2023-05-09T00:30:26.068Z,12.91
2023-05-09T00:31:26.115Z,12.91
2023-05-09T00:32:26.105Z,12.91
2023-05-09T00:33:26.051Z,12.87
2023-05-09T00:34:26.061Z,12.86
2023-05-09T00:35:26.027Z,12.86
2023-05-09T00:36:26.022Z,12.85
2023-05-09T00:37:25.977Z,12.82
2023-05-09T00:38:25.989Z,12.83
2023-05-09T00:39:25.955Z,12.79
2023-05-09T00:40:26.000Z,12.79
2023-05-09T00:41:25.932Z,12.79
2023-05-09T00:42:25.962Z,12.80
2023-05-09T00:43:25.925Z,12.79
2023-05-09T00:44:25.966Z,12.78
2023-05-09T00:45:25.891Z,12.76
2023-05-09T00:46:25.916Z,12.76
2023-05-09T00:47:25.919Z,12.73
2023-05-09T00:48:25.932Z,12.75
2023-05-09T00:49:25.878Z,12.73
2023-05-09T00:50:25.868Z,12.73
2023-05-09T00:51:25.835Z,12.73
2023-05-09T00:52:25.853Z,12.72
2023-05-09T00:53:25.867Z,12.70
2023-05-09T00:54:25.816Z,12.67
2023-05-09T00:55:25.806Z,12.65
2023-05-09T00:56:25.840Z,12.62
2023-05-09T00:57:25.848Z,12.58
2023-05-09T00:58:25.793Z,12.55
2023-05-09T00:59:25.781Z,12.54
2023-05-09T01:00:25.736Z,12.50
2023-05-09T01:01:25.797Z,12.54
2023-05-09T01:02:25.883Z,12.49
2023-05-09T01:03:25.855Z,12.50
2023-05-09T01:04:25.701Z,12.50
2023-05-09T01:05:25.682Z,12.53
2023-05-09T01:06:25.758Z,12.55
2023-05-09T01:07:25.678Z,12.53
2023-05-09T01:08:25.686Z,12.50
2023-05-09T01:09:25.662Z,12.53
2023-05-09T01:10:25.655Z,12.53
2023-05-09T01:11:25.644Z,12.50
2023-05-09T01:12:25.662Z,12.50
2023-05-09T01:13:25.673Z,12.50
2023-05-09T01:14:25.651Z,12.53
2023-05-09T01:15:25.625Z,12.53
2023-05-09T01:16:25.626Z,12.54
2023-05-09T01:17:25.583Z,12.55
2023-05-09T01:18:25.544Z,12.55
2023-05-09T01:19:25.578Z,12.57
2023-05-09T01:20:25.576Z,12.60
2023-05-09T01:21:25.517Z,12.65
2023-05-09T01:22:25.508Z,12.67
2023-05-09T01:23:25.508Z,12.68
2023-05-09T01:24:25.513Z,12.68
2023-05-09T01:25:25.524Z,12.70
2023-05-09T01:26:25.477Z,12.70
2023-05-09T01:27:25.472Z,12.73
2023-05-09T01:28:25.448Z,12.73
2023-05-09T01:29:25.412Z,12.73
2023-05-09T01:30:25.463Z,12.75
2023-05-09T01:31:25.420Z,12.75
2023-05-09T01:32:25.442Z,12.75
2023-05-09T01:33:25.377Z,12.76
2023-05-09T01:34:25.390Z,12.75
2023-05-09T01:35:25.374Z,12.76
2023-05-09T01:36:25.386Z,12.76
2023-05-09T01:37:25.327Z,12.76
2023-05-09T01:38:25.335Z,12.79
2023-05-09T01:39:25.363Z,12.78
2023-05-09T01:40:25.401Z,12.80
2023-05-09T01:41:25.300Z,12.80
2023-05-09T01:42:25.336Z,12.82
2023-05-09T01:43:25.311Z,12.82
2023-05-09T01:44:25.301Z,12.82
2023-05-09T01:45:25.264Z,12.80
2023-05-09T01:46:25.377Z,12.80
2023-05-09T01:47:25.325Z,12.80
2023-05-09T01:48:25.238Z,12.80
2023-05-09T01:49:25.224Z,12.82
2023-05-09T01:50:25.205Z,12.80
2023-05-09T01:51:25.214Z,12.82
2023-05-09T01:52:25.186Z,12.80
2023-05-09T01:53:25.228Z,12.80
2023-05-09T01:54:25.183Z,12.80
2023-05-09T01:55:25.176Z,12.80
2023-05-09T01:56:25.208Z,12.78
2023-05-09T01:57:25.159Z,12.76
2023-05-09T01:58:25.134Z,12.76
2023-05-09T01:59:25.106Z,12.75
2023-05-09T02:00:25.128Z,12.76
2023-05-09T02:01:25.134Z,12.78
2023-05-09T02:02:25.218Z,12.78
2023-05-09T02:03:25.117Z,12.79
2023-05-09T02:04:25.060Z,12.78
2023-05-09T02:05:25.095Z,12.78
2023-05-09T02:06:25.038Z,12.79
2023-05-09T02:07:25.058Z,12.79
2023-05-09T02:08:25.026Z,12.79
2023-05-09T02:09:25.072Z,12.78
2023-05-09T02:10:25.059Z,12.78
2023-05-09T02:11:24.974Z,12.78
2023-05-09T02:12:25.005Z,12.79
2023-05-09T02:13:25.126Z,12.76
2023-05-09T02:14:24.962Z,12.72
2023-05-09T02:15:24.961Z,12.72
2023-05-09T02:16:25.026Z,12.70
2023-05-09T02:17:24.938Z,12.70
2023-05-09T02:18:24.954Z,12.65
2023-05-09T02:19:24.947Z,12.62
2023-05-09T02:20:24.947Z,12.62
2023-05-09T02:21:25.618Z,12.64
2023-05-09T02:22:24.864Z,12.61
2023-05-09T02:23:24.852Z,12.61
2023-05-09T02:24:24.852Z,12.61
2023-05-09T02:25:24.834Z,12.58
2023-05-09T02:26:24.818Z,12.60
2023-05-09T02:27:24.806Z,12.60
2023-05-09T02:28:24.854Z,12.58
2023-05-09T02:29:24.788Z,12.61
2023-05-09T02:30:24.862Z,12.61
2023-05-09T02:31:24.773Z,12.60
2023-05-09T02:32:24.800Z,12.61
2023-05-09T02:33:24.754Z,12.58
2023-05-09T02:34:24.749Z,12.58
2023-05-09T02:35:24.748Z,12.58
2023-05-09T02:36:24.736Z,12.57
2023-05-09T02:37:24.681Z,12.58
2023-05-09T02:38:24.747Z,12.55
2023-05-09T02:39:24.725Z,12.58
2023-05-09T02:40:24.848Z,12.57
2023-05-09T02:41:24.710Z,12.57
2023-05-09T02:42:24.678Z,12.57
2023-05-09T02:43:24.647Z,12.54
2023-05-09T02:44:24.636Z,12.50
2023-05-09T02:45:24.608Z,12.47
2023-05-09T02:46:24.661Z,12.45
2023-05-09T02:47:25.504Z,12.42
2023-05-09T02:48:24.667Z,12.40
2023-05-09T02:49:31.949Z,12.39
2023-05-09T02:50:24.584Z,12.39
2023-05-09T02:51:24.562Z,12.37
2023-05-09T02:52:24.569Z,12.39
2023-05-09T02:53:24.554Z,12.37
2023-05-09T02:54:24.537Z,12.36
2023-05-09T02:55:24.609Z,12.36
2023-05-09T02:56:24.491Z,12.35
2023-05-09T02:57:24.501Z,12.35
2023-05-09T02:58:24.588Z,12.35
2023-05-09T02:59:24.482Z,12.32
2023-05-09T03:00:24.503Z,12.35
2023-05-09T03:01:24.484Z,12.36
2023-05-09T03:02:24.513Z,12.35
2023-05-09T03:03:24.520Z,12.35
2023-05-09T03:04:24.431Z,12.36
2023-05-09T03:05:24.411Z,12.39
2023-05-09T03:06:24.441Z,12.39
2023-05-09T03:07:24.354Z,12.40
2023-05-09T03:08:24.385Z,12.43
2023-05-09T03:09:24.381Z,12.43
2023-05-09T03:10:24.399Z,12.45
2023-05-09T03:11:24.312Z,12.46
2023-05-09T03:12:24.286Z,12.47
2023-05-09T03:13:24.365Z,12.46
2023-05-09T03:14:24.316Z,12.43
2023-05-09T03:15:24.530Z,12.45
2023-05-09T03:16:24.256Z,12.46
2023-05-09T03:17:24.223Z,12.46
2023-05-09T03:18:24.234Z,12.45
2023-05-09T03:19:24.255Z,12.45
2023-05-09T03:20:24.301Z,12.45
2023-05-09T03:21:24.255Z,12.46
2023-05-09T03:22:24.176Z,12.47
2023-05-09T03:23:24.165Z,12.47
2023-05-09T03:24:24.176Z,12.49
2023-05-09T03:25:24.865Z,12.49
2023-05-09T03:26:24.193Z,12.53
2023-05-09T03:27:24.136Z,12.53
2023-05-09T03:28:24.129Z,12.53
2023-05-09T03:29:24.117Z,12.53
2023-05-09T03:30:24.107Z,12.54
2023-05-09T03:31:24.173Z,12.53
2023-05-09T03:32:24.126Z,12.54
2023-05-09T03:33:24.090Z,12.54
2023-05-09T03:34:24.036Z,12.55
2023-05-09T03:35:24.084Z,12.55
2023-05-09T03:36:24.052Z,12.57
2023-05-09T03:37:26.217Z,12.57
2023-05-09T03:38:24.005Z,12.58
2023-05-09T03:39:23.989Z,12.60
2023-05-09T03:40:24.004Z,12.61
2023-05-09T03:41:24.015Z,12.62
2023-05-09T03:42:24.021Z,12.64
2023-05-09T03:43:23.961Z,12.67
2023-05-09T03:44:23.957Z,12.67
2023-05-09T03:45:23.961Z,12.72
2023-05-09T03:46:24.017Z,12.76
2023-05-09T03:47:23.964Z,12.76
2023-05-09T03:48:23.967Z,12.80
2023-05-09T03:49:23.877Z,12.80
2023-05-09T03:50:23.973Z,12.82
2023-05-09T03:51:23.898Z,12.85
2023-05-09T03:52:23.872Z,12.86
2023-05-09T03:53:23.845Z,12.86
2023-05-09T03:54:23.833Z,12.90
2023-05-09T03:55:23.858Z,12.90
2023-05-09T03:56:23.844Z,12.91
2023-05-09T03:57:23.842Z,12.94
2023-05-09T03:58:23.848Z,12.95
2023-05-09T03:59:23.776Z,12.97
2023-05-09T04:00:23.825Z,12.98
2023-05-09T04:01:23.784Z,13.01
2023-05-09T04:02:23.849Z,13.04
2023-05-09T04:03:23.807Z,13.03
2023-05-09T04:04:23.723Z,13.03
2023-05-09T04:05:23.802Z,13.04
2023-05-09T04:06:23.703Z,13.04
2023-05-09T04:07:23.712Z,13.04
2023-05-09T04:08:23.729Z,13.08
2023-05-09T04:09:23.688Z,13.09
2023-05-09T04:10:23.682Z,13.09
2023-05-09T04:11:23.775Z,13.11
2023-05-09T04:12:23.733Z,13.11
2023-05-09T04:13:23.744Z,13.12
2023-05-09T04:14:23.616Z,13.15
2023-05-09T04:15:23.626Z,13.16
2023-05-09T04:16:23.713Z,13.16
2023-05-09T04:17:23.609Z,13.19
2023-05-09T04:18:23.585Z,13.19
2023-05-09T04:19:23.624Z,13.19
2023-05-09T04:20:24.563Z,13.22
2023-05-09T04:21:23.548Z,13.23
2023-05-09T04:22:23.525Z,13.25
2023-05-09T04:23:23.553Z,13.28
2023-05-09T04:24:23.549Z,13.30
2023-05-09T04:25:23.515Z,13.31
2023-05-09T04:26:23.520Z,13.33
2023-05-09T04:27:23.562Z,13.37
2023-05-09T04:28:23.498Z,13.37
2023-05-09T04:29:23.489Z,13.38
2023-05-09T04:30:23.538Z,13.39
2023-05-09T04:31:23.546Z,13.42
2023-05-09T04:32:23.454Z,13.44
2023-05-09T04:33:23.541Z,13.46
2023-05-09T04:34:23.422Z,13.47
2023-05-09T04:35:23.514Z,13.49
2023-05-09T04:36:23.377Z,13.50
2023-05-09T04:37:23.458Z,13.53
2023-05-09T04:38:23.387Z,13.56
2023-05-09T04:39:23.415Z,13.59
2023-05-09T04:40:25.471Z,13.60
2023-05-09T04:41:23.369Z,13.63
2023-05-09T04:42:23.353Z,13.65
2023-05-09T04:43:23.342Z,13.68
2023-05-09T04:44:23.316Z,13.72
2023-05-09T04:45:23.299Z,13.72
2023-05-09T04:46:25.633Z,13.77
2023-05-09T04:47:23.355Z,13.78
2023-05-09T04:48:23.277Z,13.83
2023-05-09T04:49:23.288Z,13.86
2023-05-09T04:50:23.253Z,13.89
2023-05-09T04:51:23.276Z,13.92
2023-05-09T04:52:23.334Z,13.93
2023-05-09T04:53:23.217Z,13.96
2023-05-09T04:54:23.200Z,13.97
2023-05-09T04:55:23.226Z,13.99
2023-05-09T04:56:23.187Z,14.04
2023-05-09T04:57:23.176Z,14.05
2023-05-09T04:58:23.148Z,14.07
2023-05-09T04:59:23.144Z,14.10
2023-05-09T05:00:23.169Z,14.11
2023-05-09T05:01:23.151Z,14.14
2023-05-09T05:02:23.183Z,14.17
2023-05-09T05:03:23.177Z,14.17
2023-05-09T05:04:23.137Z,14.22
2023-05-09T05:05:25.380Z,14.25
2023-05-09T05:06:23.080Z,14.28
2023-05-09T05:07:23.078Z,14.30
2023-05-09T05:08:23.058Z,14.32
2023-05-09T05:09:23.104Z,14.36
2023-05-09T05:10:23.079Z,14.37
2023-05-09T05:11:23.109Z,14.41
2023-05-09T05:12:23.003Z,14.44
2023-05-09T05:13:23.079Z,14.44
2023-05-09T05:14:23.023Z,14.45
2023-05-09T05:15:23.034Z,14.47
2023-05-09T05:16:23.231Z,14.48
2023-05-09T05:17:22.968Z,14.48
2023-05-09T05:18:23.033Z,14.51
2023-05-09T05:19:22.934Z,14.53
2023-05-09T05:20:22.926Z,14.55
2023-05-09T05:21:22.917Z,14.58
2023-05-09T05:22:22.911Z,14.60
2023-05-09T05:23:22.946Z,14.66
2023-05-09T05:24:22.907Z,14.68
2023-05-09T05:25:22.894Z,14.70
2023-05-09T05:26:22.859Z,14.77
2023-05-09T05:27:22.856Z,14.79
2023-05-09T05:28:22.919Z,14.82
2023-05-09T05:29:22.843Z,14.85
2023-05-09T05:30:22.830Z,14.88
2023-05-09T05:31:22.854Z,14.92
2023-05-09T05:32:22.787Z,14.94
2023-05-09T05:33:22.828Z,14.97
2023-05-09T05:34:22.776Z,15.00
2023-05-09T05:35:22.774Z,15.03
2023-05-09T05:36:22.763Z,15.07
2023-05-09T05:37:22.784Z,15.07
2023-05-09T05:38:22.754Z,15.09
2023-05-09T05:39:22.749Z,15.15
2023-05-09T05:40:22.704Z,15.18
2023-05-09T05:41:22.698Z,15.19
2023-05-09T05:42:22.727Z,15.22
2023-05-09T05:43:22.685Z,15.25
2023-05-09T05:44:22.730Z,15.27
2023-05-09T05:45:22.716Z,15.31
2023-05-09T05:46:22.754Z,15.31
2023-05-09T05:47:22.634Z,15.29
2023-05-09T05:48:22.618Z,15.33
2023-05-09T05:49:22.628Z,15.39
2023-05-09T05:50:22.586Z,15.40
2023-05-09T05:51:22.633Z,15.40
2023-05-09T05:52:22.586Z,15.43
2023-05-09T05:53:22.558Z,15.46
2023-05-09T05:54:22.628Z,15.47
2023-05-09T05:55:22.621Z,15.47
2023-05-09T05:56:22.509Z,15.49
2023-05-09T05:57:23.504Z,15.49
2023-05-09T05:58:22.545Z,15.52
2023-05-09T05:59:22.505Z,15.52
2023-05-09T06:00:22.479Z,15.57
2023-05-09T06:01:22.504Z,15.55
2023-05-09T06:02:22.511Z,15.58
2023-05-09T06:03:22.500Z,15.58
2023-05-09T06:04:22.479Z,15.59
2023-05-09T06:05:22.482Z,15.59
2023-05-09T06:06:22.448Z,15.61
2023-05-09T06:07:22.426Z,15.59
2023-05-09T06:08:22.996Z,15.61
2023-05-09T06:09:22.387Z,15.61
2023-05-09T06:10:22.386Z,15.59
2023-05-09T06:11:22.403Z,15.61
2023-05-09T06:12:22.360Z,15.59
2023-05-09T06:13:22.458Z,15.59
2023-05-09T06:14:22.368Z,15.59
2023-05-09T06:15:22.355Z,15.59
2023-05-09T06:16:22.363Z,15.59
2023-05-09T06:17:22.312Z,15.61
2023-05-09T06:18:22.281Z,15.64
2023-05-09T06:19:22.285Z,15.61
2023-05-09T06:20:22.269Z,15.64
2023-05-09T06:21:22.258Z,15.64
2023-05-09T06:22:22.245Z,15.65
2023-05-09T06:23:22.327Z,15.67
2023-05-09T06:24:34.414Z,15.65
2023-05-09T06:25:22.263Z,15.68
2023-05-09T06:26:22.233Z,15.73
2023-05-09T06:27:22.196Z,15.73
2023-05-09T06:28:22.175Z,15.73
2023-05-09T06:29:22.162Z,15.77
2023-05-09T06:30:26.089Z,15.79
2023-05-09T06:31:23.542Z,15.83
2023-05-09T06:32:22.157Z,15.84
2023-05-09T06:33:22.202Z,15.88
2023-05-09T06:34:22.151Z,15.90
2023-05-09T06:35:22.193Z,15.92
2023-05-09T06:36:22.144Z,15.94
2023-05-09T06:37:22.091Z,15.95
2023-05-09T06:38:22.116Z,15.97
2023-05-09T06:39:22.107Z,15.98
2023-05-09T06:40:22.069Z,16.02
2023-05-09T06:41:22.052Z,16.02
2023-05-09T06:42:22.050Z,16.02
2023-05-09T06:43:22.069Z,16.02
2023-05-09T06:44:22.010Z,16.04
2023-05-09T06:45:22.084Z,16.02
2023-05-09T06:46:22.047Z,16.05
2023-05-09T06:47:21.976Z,16.09
2023-05-09T06:48:21.995Z,16.12
2023-05-09T06:49:22.156Z,16.15
2023-05-09T06:50:21.977Z,16.23
2023-05-09T06:51:22.020Z,16.29
2023-05-09T06:52:21.912Z,16.36
2023-05-09T06:53:21.942Z,16.47
2023-05-09T06:54:21.908Z,16.54
2023-05-09T06:55:21.894Z,16.60
2023-05-09T06:56:21.907Z,16.65
2023-05-09T06:57:21.870Z,16.71
2023-05-09T06:58:21.881Z,16.74
2023-05-09T06:59:21.904Z,16.75
2023-05-09T07:00:21.889Z,16.75
2023-05-09T07:01:21.936Z,16.75
2023-05-09T07:02:21.816Z,16.74
2023-05-09T07:03:22.717Z,16.71
2023-05-09T07:04:21.842Z,16.71
2023-05-09T07:05:21.905Z,16.71
2023-05-09T07:06:21.864Z,16.69
2023-05-09T07:07:21.812Z,16.65
2023-05-09T07:08:21.799Z,16.65
2023-05-09T07:09:21.801Z,16.61
2023-05-09T07:10:21.754Z,16.61
2023-05-09T07:11:21.775Z,16.60
2023-05-09T07:12:21.781Z,16.60
2023-05-09T07:13:21.761Z,16.61
2023-05-09T07:14:21.736Z,16.64
2023-05-09T07:15:33.003Z,16.64
2023-05-09T07:16:21.779Z,16.61
2023-05-09T07:17:23.650Z,16.65
2023-05-09T07:18:21.696Z,16.64
2023-05-09T07:19:21.658Z,16.66
2023-05-09T07:20:21.634Z,16.65
2023-05-09T07:21:21.658Z,16.65
2023-05-09T07:22:21.712Z,16.64
2023-05-09T07:23:21.623Z,16.68
2023-05-09T07:24:21.651Z,16.68
2023-05-09T07:25:21.609Z,16.68
2023-05-09T07:26:21.639Z,16.68
2023-05-09T07:27:21.575Z,16.69
2023-05-09T07:28:21.595Z,16.72
2023-05-09T07:29:21.534Z,16.74
2023-05-09T07:30:21.625Z,16.76
2023-05-09T07:31:21.606Z,16.81
2023-05-09T07:32:21.567Z,16.84
2023-05-09T07:33:21.562Z,16.86
2023-05-09T07:34:21.498Z,16.90
2023-05-09T07:35:21.617Z,16.91
2023-05-09T07:36:21.486Z,16.94
2023-05-09T07:37:21.491Z,16.99
2023-05-09T07:38:21.500Z,16.96
2023-05-09T07:39:21.458Z,17.01
2023-05-09T07:40:21.511Z,17.02
2023-05-09T07:41:21.420Z,17.04
2023-05-09T07:42:21.482Z,17.06
2023-05-09T07:43:21.462Z,17.08
2023-05-09T07:44:21.420Z,17.09
2023-05-09T07:45:23.765Z,17.11
2023-05-09T07:46:21.466Z,17.09
2023-05-09T07:47:21.364Z,17.12
2023-05-09T07:48:21.396Z,17.15
2023-05-09T07:49:21.371Z,17.19
2023-05-09T07:50:21.359Z,17.20
2023-05-09T07:51:21.379Z,17.20
2023-05-09T07:52:21.350Z,17.20
2023-05-09T07:53:21.318Z,17.22
2023-05-09T07:54:21.365Z,17.24
2023-05-09T07:55:21.304Z,17.26
2023-05-09T07:56:21.279Z,17.29
2023-05-09T07:57:21.344Z,17.34
2023-05-09T07:58:21.282Z,17.39
2023-05-09T07:59:21.226Z,17.46
2023-05-09T08:00:21.250Z,17.52
2023-05-09T08:01:21.257Z,17.65
2023-05-09T08:02:21.298Z,17.78
2023-05-09T08:03:21.325Z,17.85
2023-05-09T08:04:21.263Z,17.92
2023-05-09T08:05:21.177Z,17.98
2023-05-09T08:06:21.169Z,18.07
2023-05-09T08:07:21.191Z,18.16
2023-05-09T08:08:21.171Z,18.20
2023-05-09T08:09:21.220Z,18.26
2023-05-09T08:10:21.137Z,18.31
2023-05-09T08:11:21.148Z,18.34
2023-05-09T08:12:21.134Z,18.38
2023-05-09T08:13:21.266Z,18.38
2023-05-09T08:14:21.087Z,18.41
2023-05-09T08:15:21.063Z,18.44
2023-05-09T08:16:21.164Z,18.58
2023-05-09T08:17:21.116Z,18.60
2023-05-09T08:18:21.046Z,18.65
2023-05-09T08:19:21.049Z,18.62
2023-05-09T08:20:21.072Z,18.63
2023-05-09T08:21:22.255Z,18.66
2023-05-09T08:22:21.030Z,18.70
2023-05-09T08:23:21.024Z,18.74
2023-05-09T08:24:20.988Z,18.78
2023-05-09T08:25:21.023Z,18.84
2023-05-09T08:26:21.022Z,18.88
2023-05-09T08:27:21.608Z,18.92
2023-05-09T08:28:20.958Z,18.92
2023-05-09T08:29:20.974Z,18.92
2023-05-09T08:30:20.973Z,18.90
2023-05-09T08:31:20.971Z,18.90
2023-05-09T08:32:20.917Z,18.89
2023-05-09T08:33:20.887Z,18.89
2023-05-09T08:34:20.960Z,18.88
2023-05-09T08:35:20.880Z,18.89
2023-05-09T08:36:20.901Z,18.88
2023-05-09T08:37:20.911Z,18.84
2023-05-09T08:38:20.876Z,18.83
2023-05-09T08:39:20.860Z,18.84
2023-05-09T08:40:20.836Z,18.86
2023-05-09T08:41:20.857Z,18.89
2023-05-09T08:42:20.857Z,18.92
2023-05-09T08:43:20.776Z,18.96
2023-05-09T08:44:20.802Z,18.99
2023-05-09T08:45:20.821Z,19.00
2023-05-09T08:46:20.801Z,18.99
2023-05-09T08:47:20.777Z,19.00
2023-05-09T08:48:20.746Z,18.99
2023-05-09T08:49:20.743Z,18.99
2023-05-09T08:50:20.749Z,18.96
2023-05-09T08:51:20.705Z,18.95
2023-05-09T08:52:20.682Z,18.96
2023-05-09T08:53:20.805Z,18.98
2023-05-09T08:54:22.703Z,19.00
2023-05-09T08:55:21.156Z,19.04
2023-05-09T08:56:20.661Z,19.04
2023-05-09T08:57:20.673Z,19.04
2023-05-09T08:58:20.648Z,19.02
2023-05-09T08:59:20.655Z,19.04
2023-05-09T09:00:21.186Z,19.04
2023-05-09T09:01:20.704Z,19.11
2023-05-09T09:02:20.603Z,19.15
2023-05-09T09:03:20.665Z,19.22
2023-05-09T09:04:20.654Z,19.36
2023-05-09T09:05:39.969Z,19.44
2023-05-09T09:06:20.545Z,19.54
2023-05-09T09:07:20.553Z,19.59
2023-05-09T09:08:20.517Z,19.67
2023-05-09T09:09:20.514Z,19.70
2023-05-09T09:10:20.609Z,19.71
2023-05-09T09:11:20.509Z,19.71
2023-05-09T09:12:20.516Z,19.66
2023-05-09T09:13:20.547Z,19.58
2023-05-09T09:14:20.561Z,19.63
2023-05-09T09:15:20.429Z,19.77
2023-05-09T09:16:20.620Z,19.91
2023-05-09T09:17:20.408Z,20.07
2023-05-09T09:18:20.430Z,20.24
2023-05-09T09:19:20.421Z,20.29
2023-05-09T09:20:20.427Z,20.36
2023-05-09T09:21:20.446Z,20.37
2023-05-09T09:22:20.423Z,20.41
2023-05-09T09:23:20.393Z,20.41
2023-05-09T09:24:20.354Z,20.41
2023-05-09T09:25:20.329Z,20.37
2023-05-09T09:26:20.337Z,20.29
2023-05-09T09:27:20.367Z,20.18
2023-05-09T09:28:20.300Z,20.07
2023-05-09T09:29:20.311Z,19.95
2023-05-09T09:30:20.397Z,19.85
2023-05-09T09:31:20.310Z,19.81
2023-05-09T09:32:20.320Z,19.77
2023-05-09T09:33:20.263Z,19.84
2023-05-09T09:34:20.319Z,20.00
2023-05-09T09:35:20.246Z,20.13
2023-05-09T09:36:20.267Z,20.29
2023-05-09T09:37:20.290Z,20.39
2023-05-09T09:38:20.229Z,20.41
2023-05-09T09:39:20.176Z,20.48
2023-05-09T09:40:20.251Z,20.51
2023-05-09T09:41:20.165Z,20.52
2023-05-09T09:42:20.170Z,20.52
2023-05-09T09:43:20.146Z,20.44
2023-05-09T09:44:20.196Z,20.41
2023-05-09T09:45:20.295Z,20.39
2023-05-09T09:46:20.158Z,20.39
2023-05-09T09:47:20.087Z,20.37
2023-05-09T09:48:20.106Z,20.40
2023-05-09T09:49:20.070Z,20.44
2023-05-09T09:50:20.640Z,20.48
2023-05-09T09:51:20.040Z,20.55
2023-05-09T09:52:20.064Z,20.58
2023-05-09T09:53:20.049Z,20.65
2023-05-09T09:54:20.042Z,20.69
2023-05-09T09:55:19.995Z,20.74
2023-05-09T09:56:20.025Z,20.78
2023-05-09T09:57:20.004Z,20.85
2023-05-09T09:58:19.972Z,20.96
2023-05-09T09:59:19.962Z,21.05
2023-05-09T10:00:19.982Z,21.14
2023-05-09T10:01:20.038Z,21.12
2023-05-09T10:02:19.912Z,21.12
2023-05-09T10:03:20.018Z,21.15
2023-05-09T10:04:19.904Z,21.20
2023-05-09T10:05:19.896Z,21.24
2023-05-09T10:06:19.929Z,21.32
2023-05-09T10:07:19.899Z,21.39
2023-05-09T10:08:19.880Z,21.43
2023-05-09T10:09:19.860Z,21.45
2023-05-09T10:10:19.905Z,21.48
2023-05-09T10:11:19.849Z,21.55
2023-05-09T10:12:19.856Z,21.67
2023-05-09T10:13:19.834Z,21.76
2023-05-09T10:14:19.900Z,21.76
2023-05-09T10:15:19.796Z,21.72
2023-05-09T10:16:25.936Z,21.70
2023-05-09T10:17:19.855Z,21.75
2023-05-09T10:18:20.230Z,21.77
2023-05-09T10:19:19.792Z,21.82
2023-05-09T10:20:19.728Z,21.83
2023-05-09T10:21:19.723Z,21.83
2023-05-09T10:22:19.723Z,21.76
2023-05-09T10:23:19.747Z,21.75
2023-05-09T10:24:19.679Z,21.80
2023-05-09T10:25:19.748Z,21.83
2023-05-09T10:26:19.672Z,21.80
2023-05-09T10:27:19.655Z,21.85
2023-05-09T10:28:19.666Z,21.80
2023-05-09T10:29:19.633Z,21.83
2023-05-09T10:30:19.617Z,21.79
2023-05-09T10:31:19.629Z,21.82
2023-05-09T10:32:19.597Z,21.80
2023-05-09T10:33:19.585Z,21.77
2023-05-09T10:34:19.582Z,21.89
2023-05-09T10:35:19.649Z,21.98
2023-05-09T10:36:19.552Z,22.10
2023-05-09T10:37:19.583Z,22.17
2023-05-09T10:38:19.579Z,22.17
2023-05-09T10:39:19.530Z,22.20
2023-05-09T10:40:19.517Z,22.23
2023-05-09T10:41:19.546Z,22.26
2023-05-09T10:42:19.493Z,22.25
2023-05-09T10:43:19.524Z,22.25
2023-05-09T10:44:19.478Z,22.36
2023-05-09T10:45:19.443Z,22.51
2023-05-09T10:46:19.507Z,22.54
2023-05-09T10:47:19.563Z,22.57
2023-05-09T10:48:19.489Z,22.60
2023-05-09T10:49:19.428Z,22.66
2023-05-09T10:50:19.583Z,22.70
2023-05-09T10:51:19.396Z,22.69
2023-05-09T10:52:19.386Z,22.70
2023-05-09T10:53:19.394Z,22.72
2023-05-09T10:54:19.382Z,22.72
2023-05-09T10:55:19.355Z,22.73
2023-05-09T10:56:19.406Z,22.70
2023-05-09T10:57:19.378Z,22.70
2023-05-09T10:58:19.311Z,22.73
2023-05-09T10:59:19.387Z,22.75
2023-05-09T11:00:19.652Z,22.76
2023-05-09T11:01:19.332Z,22.66
2023-05-09T11:02:19.292Z,22.63
2023-05-09T11:03:19.426Z,22.68
2023-05-09T11:04:19.321Z,22.60
2023-05-09T11:05:19.294Z,22.57
2023-05-09T11:06:19.240Z,22.60
2023-05-09T11:07:19.254Z,22.65
2023-05-09T11:08:19.229Z,22.72
2023-05-09T11:09:19.193Z,22.70
2023-05-09T11:10:19.217Z,22.66
2023-05-09T11:11:19.196Z,22.65
2023-05-09T11:12:19.204Z,22.60
2023-05-09T11:13:19.279Z,22.48
2023-05-09T11:14:19.164Z,22.44
2023-05-09T11:15:19.156Z,22.44
2023-05-09T11:16:19.166Z,22.35
2023-05-09T11:17:19.128Z,22.32
2023-05-09T11:18:19.142Z,22.30
2023-05-09T11:19:19.100Z,22.29
2023-05-09T11:20:19.098Z,22.33
2023-05-09T11:21:19.076Z,22.38
2023-05-09T11:22:19.097Z,22.41
2023-05-09T11:23:19.101Z,22.45
2023-05-09T11:24:19.103Z,22.48
2023-05-09T11:25:19.089Z,22.50
2023-05-09T11:26:19.045Z,22.53
2023-05-09T11:27:19.043Z,22.54
2023-05-09T11:28:19.031Z,22.65
2023-05-09T11:29:19.054Z,22.68
2023-05-09T11:30:19.051Z,22.69
2023-05-09T11:31:19.134Z,22.72
2023-05-09T11:32:19.009Z,22.75
2023-05-09T11:33:18.979Z,22.73
2023-05-09T11:34:18.983Z,22.72
2023-05-09T11:35:19.043Z,22.69
2023-05-09T11:36:18.938Z,22.63
2023-05-09T11:37:18.959Z,22.59
2023-05-09T11:38:18.931Z,22.44
2023-05-09T11:39:18.927Z,22.32
2023-05-09T11:40:18.971Z,22.20
2023-05-09T11:41:18.883Z,22.14
2023-05-09T11:42:18.912Z,22.04
2023-05-09T11:43:18.873Z,22.00
2023-05-09T11:44:18.893Z,21.95
2023-05-09T11:45:18.833Z,21.93
2023-05-09T11:46:18.893Z,21.95
2023-05-09T11:47:18.827Z,21.98
2023-05-09T11:48:18.793Z,22.04
2023-05-09T11:49:18.830Z,22.02
2023-05-09T11:50:18.791Z,22.06
2023-05-09T11:51:18.810Z,22.10
2023-05-09T11:52:18.762Z,22.10
2023-05-09T11:53:18.772Z,22.08
2023-05-09T11:54:18.756Z,22.10
2023-05-09T11:55:19.343Z,22.08
2023-05-09T11:56:18.757Z,22.07
2023-05-09T11:57:18.698Z,22.06
2023-05-09T11:58:18.723Z,22.11
2023-05-09T11:59:18.696Z,22.11
2023-05-09T12:00:18.712Z,22.15
2023-05-09T12:01:18.683Z,22.17
2023-05-09T12:02:18.729Z,22.18
2023-05-09T12:03:18.847Z,22.23
2023-05-09T12:04:18.687Z,22.29
2023-05-09T12:05:18.720Z,22.30
2023-05-09T12:06:18.626Z,22.32
2023-05-09T12:07:18.762Z,22.28
2023-05-09T12:08:19.523Z,22.29
2023-05-09T12:09:18.607Z,22.35
2023-05-09T12:10:18.566Z,22.39
2023-05-09T12:11:18.552Z,22.36
2023-05-09T12:12:18.560Z,22.38
2023-05-09T12:13:18.580Z,22.39
2023-05-09T12:14:18.564Z,22.38
2023-05-09T12:15:18.986Z,22.36
2023-05-09T12:16:18.565Z,22.33
2023-05-09T12:17:18.484Z,22.35
2023-05-09T12:18:18.480Z,22.32
2023-05-09T12:19:18.493Z,22.26
2023-05-09T12:20:18.546Z,22.25
2023-05-09T12:21:18.496Z,22.22
2023-05-09T12:22:18.455Z,22.22
2023-05-09T12:23:18.432Z,22.32
2023-05-09T12:24:18.424Z,22.47
2023-05-09T12:25:18.505Z,22.63
2023-05-09T12:26:18.448Z,22.76
2023-05-09T12:27:18.424Z,22.87
2023-05-09T12:28:18.419Z,23.03
2023-05-09T12:29:18.382Z,23.13
2023-05-09T12:30:18.367Z,23.23
2023-05-09T12:31:18.463Z,23.24
2023-05-09T12:32:18.329Z,23.13
2023-05-09T12:33:18.325Z,23.15
2023-05-09T12:34:18.322Z,23.10
2023-05-09T12:35:18.349Z,23.03
2023-05-09T12:36:19.145Z,22.96
2023-05-09T12:37:18.297Z,22.94
2023-05-09T12:38:18.270Z,22.83
2023-05-09T12:39:18.262Z,22.72
2023-05-09T12:40:18.265Z,22.63
2023-05-09T12:41:34.866Z,22.55
2023-05-09T12:42:18.315Z,22.53
2023-05-09T12:43:18.238Z,22.43
2023-05-09T12:44:18.212Z,22.38
2023-05-09T12:45:18.447Z,22.36
2023-05-09T12:46:18.222Z,22.33
2023-05-09T12:47:18.288Z,22.38
2023-05-09T12:48:18.172Z,22.38
2023-05-09T12:49:18.188Z,22.39
2023-05-09T12:50:18.156Z,22.43
2023-05-09T12:51:18.145Z,22.47
2023-05-09T12:52:18.148Z,22.47
2023-05-09T12:53:18.442Z,22.47